createdAt,value
2023-09-03T00:01:36.288Z,5.15
2023-09-03T00:04:05.559Z,5.00
2023-09-03T00:06:34.257Z,6.15
2023-09-03T00:09:04.233Z,16.77
2023-09-03T00:11:34.387Z,5.93
2023-09-03T00:14:03.639Z,7.38
2023-09-03T00:16:32.379Z,7.50
2023-09-03T00:19:01.125Z,8.02
2023-09-03T00:21:29.873Z,7.22
2023-09-03T00:23:58.552Z,5.50
2023-09-03T00:26:28.759Z,6.05
2023-09-03T00:29:03.086Z,5.43
2023-09-03T00:31:31.774Z,6.95
2023-09-03T00:34:00.655Z,7.20
2023-09-03T00:36:29.406Z,5.68
2023-09-03T00:38:59.636Z,6.13
2023-09-03T00:41:29.250Z,8.00
2023-09-03T00:43:58.055Z,6.60
2023-09-03T00:46:28.291Z,5.85
2023-09-03T00:48:57.217Z,6.18
2023-09-03T00:51:26.435Z,5.65
2023-09-03T00:53:58.544Z,6.23
2023-09-03T00:56:28.343Z,5.40
2023-09-03T00:58:58.125Z,6.25
2023-09-03T01:01:31.742Z,6.40
2023-09-03T01:04:00.582Z,7.43
2023-09-03T01:06:29.699Z,7.63
2023-09-03T01:08:58.391Z,7.22
2023-09-03T01:11:38.254Z,6.38
2023-09-03T01:14:23.214Z,7.43
2023-09-03T01:17:03.190Z,11.95
2023-09-03T01:19:59.054Z,15.50
2023-09-03T01:22:48.528Z,24.30
2023-09-03T01:25:41.001Z,30.95
2023-09-03T01:28:24.684Z,32.50
2023-09-03T01:31:00.214Z,31.25
2023-09-03T01:33:31.986Z,33.03
2023-09-03T01:36:01.702Z,25.83
2023-09-03T01:38:30.733Z,29.63
2023-09-03T01:41:00.675Z,27.85
2023-09-03T01:43:33.519Z,29.95
2023-09-03T01:46:08.668Z,31.90
2023-09-03T01:49:11.840Z,32.35
2023-09-03T01:51:46.896Z,28.42
2023-09-03T01:54:23.494Z,29.77
2023-09-03T01:57:01.197Z,27.02
2023-09-03T01:59:40.744Z,26.07
2023-09-03T02:02:10.972Z,18.73
2023-09-03T02:04:39.877Z,18.48
2023-09-03T02:07:08.943Z,16.73
2023-09-03T02:09:37.701Z,13.80
2023-09-03T02:12:09.855Z,11.70
2023-09-03T02:14:40.529Z,11.82
2023-09-03T02:17:10.417Z,12.02
2023-09-03T02:19:39.404Z,11.95
2023-09-03T02:22:08.391Z,9.82
2023-09-03T02:24:37.053Z,11.07
2023-09-03T02:27:09.714Z,10.63
2023-09-03T02:29:40.793Z,11.68
2023-09-03T02:32:09.767Z,8.82
2023-09-03T02:34:39.709Z,8.60
2023-09-03T02:37:11.468Z,7.87
2023-09-03T02:39:43.433Z,8.68
2023-09-03T02:42:12.189Z,8.52
2023-09-03T02:44:42.953Z,8.57
2023-09-03T02:47:12.004Z,9.13
2023-09-03T02:49:40.695Z,10.03
2023-09-03T02:52:10.100Z,10.68
2023-09-03T02:54:38.891Z,10.52
2023-09-03T02:57:07.591Z,9.35
2023-09-03T02:59:36.212Z,9.35
2023-09-03T03:02:06.585Z,8.77
2023-09-03T03:04:35.305Z,8.90
2023-09-03T03:07:04.091Z,9.30
2023-09-03T03:09:32.729Z,8.00
2023-09-03T03:12:01.524Z,9.05
2023-09-03T03:14:32.500Z,7.53
2023-09-03T03:17:02.755Z,5.93
2023-09-03T03:19:33.283Z,7.07
2023-09-03T03:22:02.313Z,7.80
2023-09-03T03:24:31.025Z,6.70
2023-09-03T03:26:59.918Z,9.47
2023-09-03T03:29:29.750Z,6.93
2023-09-03T03:32:00.053Z,8.13
2023-09-03T03:34:30.072Z,8.43
2023-09-03T03:37:02.066Z,7.43
2023-09-03T03:39:30.858Z,8.27
2023-09-03T03:41:59.637Z,10.25
2023-09-03T03:44:28.363Z,11.77
2023-09-03T03:46:57.180Z,7.57
2023-09-03T03:49:26.017Z,10.98
2023-09-03T03:51:55.320Z,7.20
2023-09-03T03:54:25.482Z,7.38
2023-09-03T03:56:54.465Z,8.15
2023-09-03T03:59:25.898Z,6.68
2023-09-03T04:01:54.609Z,9.65
2023-09-03T04:04:23.612Z,9.97
2023-09-03T04:06:52.289Z,6.57
2023-09-03T04:09:21.126Z,8.90
2023-09-03T04:11:51.218Z,6.20
2023-09-03T04:14:20.437Z,8.63
2023-09-03T04:16:49.318Z,4.93
2023-09-03T04:19:18.091Z,6.22
2023-09-03T04:21:46.822Z,6.60
2023-09-03T04:24:15.648Z,5.55
2023-09-03T04:26:44.460Z,5.43
2023-09-03T04:29:14.571Z,7.73
2023-09-03T04:31:43.249Z,6.85
2023-09-03T04:34:13.873Z,6.07
2023-09-03T04:36:43.283Z,7.25
2023-09-03T04:39:12.939Z,6.15
2023-09-03T04:41:42.688Z,6.23
2023-09-03T04:44:14.913Z,6.50
2023-09-03T04:46:47.433Z,6.72
2023-09-03T04:49:16.266Z,9.80
2023-09-03T04:51:49.723Z,6.25
2023-09-03T04:54:19.227Z,6.93
2023-09-03T04:56:51.304Z,6.72
2023-09-03T04:59:21.501Z,6.97
2023-09-03T05:01:50.864Z,5.50
2023-09-03T05:04:19.572Z,6.03
2023-09-03T05:06:50.348Z,6.73
2023-09-03T05:09:22.537Z,7.60
2023-09-03T05:11:52.194Z,7.70
2023-09-03T05:14:23.075Z,6.90
2023-09-03T05:16:52.262Z,5.55
2023-09-03T05:19:21.569Z,6.47
2023-09-03T05:21:50.501Z,4.88
2023-09-03T05:24:20.072Z,5.82
2023-09-03T05:26:50.813Z,6.35
2023-09-03T05:29:21.111Z,4.72
2023-09-03T05:31:50.068Z,5.93
2023-09-03T05:34:19.448Z,4.60
2023-09-03T05:36:48.746Z,5.40
2023-09-03T05:39:19.092Z,5.45
2023-09-03T05:41:47.918Z,4.38
2023-09-03T05:44:17.299Z,6.80
2023-09-03T05:46:48.284Z,7.50
2023-09-03T05:49:17.239Z,8.43
2023-09-03T05:51:46.792Z,5.38
2023-09-03T05:54:16.400Z,5.88
2023-09-03T05:56:45.136Z,5.87
2023-09-03T05:59:15.533Z,7.50
2023-09-03T06:01:44.305Z,7.60
2023-09-03T06:04:18.563Z,4.68
2023-09-03T06:06:48.732Z,5.80
2023-09-03T06:09:20.054Z,5.27
2023-09-03T06:11:49.672Z,5.72
2023-09-03T06:14:19.512Z,5.88
2023-09-03T06:16:51.213Z,4.63
2023-09-03T06:19:22.042Z,6.97
2023-09-03T06:21:50.996Z,5.77
2023-09-03T06:24:19.851Z,6.65
2023-09-03T06:26:49.404Z,8.98
2023-09-03T06:29:18.185Z,8.25
2023-09-03T06:31:47.127Z,6.60
2023-09-03T06:34:17.192Z,8.83
2023-09-03T06:36:47.451Z,6.65
2023-09-03T06:39:17.251Z,5.53
2023-09-03T06:41:46.036Z,6.78
2023-09-03T06:44:17.681Z,7.32
2023-09-03T06:46:46.917Z,5.33
2023-09-03T06:49:15.844Z,9.13
2023-09-03T06:51:45.992Z,6.20
2023-09-03T06:54:19.557Z,5.63
2023-09-03T06:56:48.392Z,6.75
2023-09-03T06:59:33.490Z,4.77
2023-09-03T07:02:04.020Z,5.90
2023-09-03T07:04:34.058Z,5.35
2023-09-03T07:07:06.943Z,4.95
2023-09-03T07:09:37.650Z,4.85
2023-09-03T07:12:14.029Z,5.03
2023-09-03T07:14:44.544Z,4.97
2023-09-03T07:17:13.478Z,7.70
2023-09-03T07:19:42.932Z,5.85
2023-09-03T07:22:14.982Z,6.30
2023-09-03T07:24:47.763Z,4.90
2023-09-03T07:27:16.484Z,5.82
2023-09-03T07:29:45.350Z,7.65
2023-09-03T07:32:15.235Z,8.57
2023-09-03T07:34:44.642Z,5.65
2023-09-03T07:37:15.931Z,6.03
2023-09-03T07:39:50.022Z,4.18
2023-09-03T07:42:18.800Z,5.82
2023-09-03T07:44:47.809Z,4.13
2023-09-03T07:47:16.719Z,3.75
2023-09-03T07:49:48.158Z,4.47
2023-09-03T07:52:17.469Z,4.57
2023-09-03T07:54:46.757Z,4.10
2023-09-03T07:57:17.190Z,5.72
2023-09-03T07:59:46.398Z,4.07
2023-09-03T08:02:17.865Z,3.23
2023-09-03T08:04:48.406Z,4.28
2023-09-03T08:07:21.800Z,6.30
2023-09-03T08:09:52.640Z,4.22
2023-09-03T08:12:25.539Z,4.47
2023-09-03T08:14:56.516Z,3.17
2023-09-03T08:17:27.687Z,4.35
2023-09-03T08:20:10.535Z,3.10
2023-09-03T08:22:42.442Z,3.63
2023-09-03T08:25:12.861Z,3.40
2023-09-03T08:27:43.275Z,3.33
2023-09-03T08:30:13.236Z,5.28
2023-09-03T08:32:42.365Z,3.38
2023-09-03T08:35:14.690Z,3.30
2023-09-03T08:37:43.854Z,3.40
2023-09-03T08:40:14.648Z,4.10
2023-09-03T08:42:49.907Z,4.50
2023-09-03T08:45:19.656Z,4.50
2023-09-03T08:47:49.371Z,3.60
2023-09-03T08:50:18.882Z,4.60
2023-09-03T08:52:50.743Z,3.73
2023-09-03T08:55:26.390Z,3.58
2023-09-03T08:57:58.965Z,4.85
2023-09-03T09:00:37.038Z,3.17
2023-09-03T09:03:18.390Z,4.38
2023-09-03T09:05:51.064Z,3.73
2023-09-03T09:08:20.433Z,3.50
2023-09-03T09:10:54.500Z,4.00
2023-09-03T09:13:33.043Z,3.55
2023-09-03T09:16:05.704Z,3.88
2023-09-03T09:18:34.468Z,3.40
2023-09-03T09:21:05.337Z,3.97
2023-09-03T09:23:34.346Z,4.25
2023-09-03T09:26:03.313Z,4.90
2023-09-03T09:28:33.696Z,3.90
2023-09-03T09:31:03.317Z,4.50
2023-09-03T09:33:37.363Z,3.22
2023-09-03T09:36:15.645Z,3.60
2023-09-03T09:38:45.457Z,4.72
2023-09-03T09:41:25.484Z,3.08
2023-09-03T09:43:56.008Z,3.27
2023-09-03T09:46:35.626Z,2.85
2023-09-03T09:49:13.102Z,3.92
2023-09-03T09:52:09.541Z,3.10
2023-09-03T09:54:42.164Z,2.50
2023-09-03T09:57:16.723Z,5.73
2023-09-03T09:59:53.991Z,5.65
2023-09-03T10:02:24.360Z,4.25
2023-09-03T10:04:55.577Z,3.40
2023-09-03T10:07:27.086Z,3.97
2023-09-03T10:09:55.869Z,3.87
2023-09-03T10:12:27.462Z,4.50
2023-09-03T10:14:57.585Z,4.75
2023-09-03T10:17:28.664Z,4.63
2023-09-03T10:20:06.176Z,4.75
2023-09-03T10:22:41.590Z,6.97
2023-09-03T10:25:15.332Z,4.40
2023-09-03T10:27:52.070Z,4.68
2023-09-03T10:30:38.030Z,4.45
2023-09-03T10:33:30.201Z,2.78
2023-09-03T10:36:16.353Z,3.97
2023-09-03T10:38:46.877Z,2.55
2023-09-03T10:41:24.340Z,3.40
2023-09-03T10:43:56.632Z,3.90
2023-09-03T10:46:28.695Z,3.53
2023-09-03T10:49:01.135Z,2.23
2023-09-03T10:51:36.055Z,2.30
2023-09-03T10:54:26.817Z,2.05
2023-09-03T10:57:21.548Z,4.35
2023-09-03T11:00:22.447Z,2.75
2023-09-03T11:03:01.433Z,4.50
2023-09-03T11:05:33.949Z,3.35
2023-09-03T11:08:31.039Z,4.20
2023-09-03T11:11:03.105Z,4.28
2023-09-03T11:13:39.035Z,4.18
2023-09-03T11:16:08.235Z,2.50
2023-09-03T11:18:38.851Z,3.20
2023-09-03T11:21:08.483Z,5.07
2023-09-03T11:23:37.323Z,5.57
2023-09-03T11:26:14.279Z,5.43
2023-09-03T11:28:47.316Z,3.87
2023-09-03T11:31:17.323Z,5.00
2023-09-03T11:33:47.868Z,4.05
2023-09-03T11:36:16.819Z,6.63
2023-09-03T11:38:45.753Z,3.60
2023-09-03T11:41:22.966Z,3.03
2023-09-03T11:43:54.998Z,2.70
2023-09-03T11:46:28.266Z,3.05
2023-09-03T11:49:18.857Z,3.05
2023-09-03T11:51:47.788Z,3.40
2023-09-03T11:54:25.393Z,3.50
2023-09-03T11:57:02.093Z,2.20
2023-09-03T12:02:24.072Z,2.75
2023-09-03T12:04:54.672Z,2.83
2023-09-03T12:07:23.513Z,2.57
2023-09-03T12:09:52.716Z,2.00
2023-09-03T12:12:21.856Z,2.42
2023-09-03T12:14:53.176Z,3.30
2023-09-03T12:17:25.168Z,2.47
2023-09-03T12:19:57.250Z,2.73
2023-09-03T12:22:26.754Z,2.47
2023-09-03T12:24:57.147Z,1.98
2023-09-03T12:27:37.739Z,2.33
2023-09-03T12:30:16.078Z,2.00
2023-09-03T12:32:46.713Z,2.70
2023-09-03T12:35:21.638Z,2.85
2023-09-03T12:37:50.490Z,3.33
2023-09-03T12:40:25.162Z,2.92
2023-09-03T12:42:54.277Z,2.83
2023-09-03T12:45:27.094Z,3.37
2023-09-03T12:48:02.150Z,3.22
2023-09-03T12:50:39.901Z,2.58
2023-09-03T12:53:15.962Z,2.22
2023-09-03T12:55:48.310Z,2.20
2023-09-03T12:58:18.501Z,3.93
2023-09-03T13:00:48.258Z,3.40
2023-09-03T13:03:17.301Z,3.63
2023-09-03T13:05:47.865Z,3.20
2023-09-03T13:08:17.083Z,2.90
2023-09-03T13:10:45.842Z,4.17
2023-09-03T13:13:14.715Z,4.40
2023-09-03T13:15:43.520Z,3.00
2023-09-03T13:18:12.344Z,3.35
2023-09-03T13:20:41.309Z,3.55
2023-09-03T13:23:11.835Z,3.53
2023-09-03T13:25:41.269Z,2.35
2023-09-03T13:28:11.297Z,2.40
2023-09-03T13:30:45.213Z,1.80
2023-09-03T13:33:22.885Z,3.53
2023-09-03T13:35:54.560Z,2.50
2023-09-03T13:38:25.849Z,1.95
2023-09-03T13:40:56.049Z,2.05
2023-09-03T13:43:26.530Z,3.20
2023-09-03T13:45:55.876Z,2.35
2023-09-03T13:48:25.258Z,3.73
2023-09-03T13:50:55.783Z,3.88
2023-09-03T13:53:26.312Z,4.05
2023-09-03T13:55:55.446Z,2.80
2023-09-03T13:58:24.512Z,1.80
2023-09-03T14:00:53.426Z,3.43
2023-09-03T14:03:22.400Z,2.67
2023-09-03T14:05:51.348Z,2.40
2023-09-03T14:08:20.056Z,5.30
2023-09-03T14:10:59.634Z,2.28
2023-09-03T14:13:29.615Z,5.10
2023-09-03T14:15:58.411Z,2.00
2023-09-03T14:18:29.142Z,5.20
2023-09-03T14:20:58.371Z,1.77
2023-09-03T14:23:28.195Z,2.30
2023-09-03T14:25:59.669Z,2.97
2023-09-03T14:28:28.588Z,2.42
2023-09-03T14:31:02.155Z,3.10
2023-09-03T14:33:31.007Z,2.00
2023-09-03T14:36:01.528Z,2.65
2023-09-03T14:38:30.381Z,4.63
2023-09-03T14:41:00.872Z,5.85
2023-09-03T14:43:29.571Z,4.35
2023-09-03T14:46:02.149Z,2.75
2023-09-03T14:48:31.072Z,4.13
2023-09-03T14:50:59.967Z,6.50
2023-09-03T14:53:28.761Z,5.32
2023-09-03T14:56:00.530Z,4.78
2023-09-03T14:58:30.021Z,6.72
2023-09-03T15:01:03.963Z,6.35
2023-09-03T15:03:35.397Z,6.03
2023-09-03T15:06:04.883Z,4.93
2023-09-03T15:08:39.189Z,7.43
2023-09-03T15:11:14.862Z,9.27
2023-09-03T15:13:48.367Z,6.00
2023-09-03T15:16:27.156Z,5.17
2023-09-03T15:19:00.582Z,6.80
2023-09-03T15:21:39.645Z,7.30
2023-09-03T15:24:12.656Z,6.32
2023-09-03T15:26:43.006Z,6.43
2023-09-03T15:29:11.709Z,4.20
2023-09-03T15:31:43.859Z,5.95
2023-09-03T15:34:29.295Z,3.72
2023-09-03T15:36:58.043Z,5.93
2023-09-03T15:40:02.748Z,4.38
2023-09-03T15:42:37.188Z,5.40
2023-09-03T15:45:07.379Z,5.32
2023-09-03T15:47:51.279Z,3.47
2023-09-03T15:50:20.876Z,5.38
2023-09-03T15:52:49.641Z,4.72
2023-09-03T15:55:18.694Z,6.30
2023-09-03T15:57:49.679Z,6.78
2023-09-03T16:00:21.334Z,5.15
2023-09-03T16:02:50.402Z,6.25
2023-09-03T16:05:19.519Z,5.65
2023-09-03T16:07:48.894Z,3.50
2023-09-03T16:10:17.879Z,4.10
2023-09-03T16:12:49.833Z,5.57
2023-09-03T16:15:18.981Z,4.85
2023-09-03T16:17:47.800Z,7.05
2023-09-03T16:20:16.622Z,5.00
2023-09-03T16:22:45.433Z,6.03
2023-09-03T16:25:14.188Z,5.18
2023-09-03T16:27:43.508Z,6.22
2023-09-03T16:30:15.317Z,4.80
2023-09-03T16:32:48.706Z,6.53
2023-09-03T16:35:17.751Z,4.65
2023-09-03T16:37:46.741Z,4.60
2023-09-03T16:40:19.075Z,4.32
2023-09-03T16:42:54.333Z,4.57
2023-09-03T16:45:31.734Z,6.63
2023-09-03T16:48:02.663Z,4.45
2023-09-03T16:50:38.321Z,7.18
2023-09-03T16:53:09.369Z,6.85
2023-09-03T16:55:47.397Z,9.50
2023-09-03T16:58:16.130Z,4.43
2023-09-03T17:00:47.562Z,7.05
2023-09-03T17:03:26.933Z,6.40
2023-09-03T17:06:00.841Z,8.75
2023-09-03T17:08:30.057Z,8.48
2023-09-03T17:11:03.263Z,6.67
2023-09-03T17:13:32.748Z,6.55
2023-09-03T17:16:02.961Z,7.78
2023-09-03T17:18:32.229Z,7.57
2023-09-03T17:21:00.928Z,8.02
2023-09-03T17:23:29.741Z,9.13
2023-09-03T17:25:58.560Z,9.82
2023-09-03T17:28:28.356Z,8.27
2023-09-03T17:31:03.802Z,8.95
2023-09-03T17:33:33.009Z,8.57
2023-09-03T17:36:05.043Z,7.80
2023-09-03T17:38:34.201Z,8.68
2023-09-03T17:41:02.885Z,10.38
2023-09-03T17:43:33.944Z,9.35
2023-09-03T17:46:04.186Z,10.52
2023-09-03T17:48:33.114Z,10.00
2023-09-03T17:51:02.113Z,11.82
2023-09-03T17:53:33.038Z,10.35
2023-09-03T17:56:01.824Z,12.60
2023-09-03T17:58:30.863Z,11.43
2023-09-03T18:01:01.990Z,11.13
2023-09-03T18:03:32.499Z,13.00
2023-09-03T18:06:01.338Z,11.60
2023-09-03T18:08:31.151Z,11.73
2023-09-03T18:10:59.846Z,11.63
2023-09-03T18:13:28.877Z,14.43
2023-09-03T18:16:00.967Z,15.18
2023-09-03T18:18:38.922Z,14.60
2023-09-03T18:21:09.798Z,15.07
2023-09-03T18:23:39.848Z,14.82
2023-09-03T18:26:10.354Z,14.70
2023-09-03T18:28:42.715Z,15.40
2023-09-03T18:31:13.366Z,14.10
2023-09-03T18:33:43.956Z,11.15
2023-09-03T18:36:15.017Z,14.15
2023-09-03T18:38:47.282Z,14.23
2023-09-03T18:41:16.984Z,15.85
2023-09-03T18:43:47.244Z,14.43
2023-09-03T18:46:16.147Z,16.77
2023-09-03T18:48:46.326Z,15.45
2023-09-03T18:51:15.423Z,14.17
2023-09-03T18:53:44.109Z,17.73
2023-09-03T18:56:12.972Z,14.13
2023-09-03T18:58:41.851Z,15.05
2023-09-03T19:01:11.663Z,13.98
2023-09-03T19:03:40.742Z,12.47
2023-09-03T19:06:18.213Z,14.57
2023-09-03T19:08:47.283Z,12.88
2023-09-03T19:11:16.172Z,12.82
2023-09-03T19:13:44.988Z,13.95
2023-09-03T19:16:20.871Z,14.03
2023-09-03T19:18:50.946Z,13.07
2023-09-03T19:21:21.034Z,14.45
2023-09-03T19:23:50.215Z,11.73
2023-09-03T19:26:20.583Z,14.70
2023-09-03T19:28:49.985Z,17.07
2023-09-03T19:31:19.044Z,14.15
2023-09-03T19:33:48.300Z,12.88
2023-09-03T19:36:17.772Z,13.90
2023-09-03T19:38:48.276Z,15.75
2023-09-03T19:41:20.358Z,13.93
2023-09-03T19:43:49.181Z,15.05
2023-09-03T19:46:18.153Z,15.00
2023-09-03T19:48:48.399Z,14.43
2023-09-03T19:51:17.156Z,16.88
2023-09-03T19:53:53.690Z,16.20
2023-09-03T19:56:23.878Z,15.40
2023-09-03T19:58:53.000Z,15.35
2023-09-03T20:01:21.930Z,16.75
2023-09-03T20:03:51.089Z,17.08
2023-09-03T20:06:21.190Z,17.27
2023-09-03T20:08:51.798Z,16.85
2023-09-03T20:11:20.690Z,16.88
2023-09-03T20:13:53.695Z,15.65
2023-09-03T20:16:22.664Z,16.75
2023-09-03T20:18:52.634Z,16.37
2023-09-03T20:21:21.383Z,17.58
2023-09-03T20:23:51.652Z,16.40
2023-09-03T20:26:20.666Z,15.38
2023-09-03T20:28:49.690Z,15.77
2023-09-03T20:31:18.791Z,17.53
2023-09-03T20:33:47.761Z,16.88
2023-09-03T20:36:16.601Z,17.50
2023-09-03T20:38:45.379Z,17.25
2023-09-03T20:41:17.030Z,16.15
2023-09-03T20:43:45.734Z,19.13
2023-09-03T20:46:14.492Z,15.68
2023-09-03T20:48:43.352Z,17.45
2023-09-03T20:51:12.151Z,17.77
2023-09-03T20:53:41.192Z,17.98
2023-09-03T20:56:10.051Z,17.00
2023-09-03T20:58:40.349Z,22.13
2023-09-03T21:01:15.664Z,17.60
2023-09-03T21:03:44.673Z,17.27
2023-09-03T21:06:13.355Z,19.77
2023-09-03T21:08:42.096Z,18.20
2023-09-03T21:11:10.792Z,18.50
2023-09-03T21:13:40.948Z,17.08
2023-09-03T21:16:09.678Z,22.40
2023-09-03T21:18:38.476Z,22.48
2023-09-03T21:21:08.062Z,19.20
2023-09-03T21:23:37.412Z,19.38
2023-09-03T21:26:15.116Z,19.38
2023-09-03T21:28:45.393Z,22.85
2023-09-03T21:31:19.358Z,22.85
2023-09-03T21:33:48.792Z,20.63
2023-09-03T21:36:19.592Z,23.52
2023-09-03T21:38:48.964Z,22.67
2023-09-03T21:41:18.150Z,24.17
2023-09-03T21:43:52.759Z,29.70
2023-09-03T21:46:21.968Z,26.47
2023-09-03T21:48:51.364Z,24.55
2023-09-03T21:51:21.252Z,32.83
2023-09-03T21:53:50.456Z,18.83
2023-09-03T21:56:19.126Z,25.15
2023-09-03T21:58:49.563Z,22.83
2023-09-03T22:01:18.447Z,21.90
2023-09-03T22:03:49.009Z,21.55
2023-09-03T22:06:18.118Z,20.45
2023-09-03T22:08:47.830Z,21.35
2023-09-03T22:11:17.030Z,21.03
2023-09-03T22:13:45.773Z,19.60
2023-09-03T22:16:17.450Z,20.20
2023-09-03T22:18:55.974Z,21.42
2023-09-03T22:21:26.199Z,18.27
2023-09-03T22:23:54.903Z,21.70
2023-09-03T22:26:23.720Z,22.33
2023-09-03T22:28:54.678Z,20.70
2023-09-03T22:31:24.832Z,23.80
2023-09-03T22:33:53.746Z,20.55
2023-09-03T22:36:22.483Z,23.17
2023-09-03T22:38:51.147Z,24.42
2023-09-03T22:41:19.817Z,22.60
2023-09-03T22:43:48.570Z,20.20
2023-09-03T22:46:17.645Z,21.27
2023-09-03T22:48:48.067Z,26.10
2023-09-03T22:51:16.787Z,21.52
2023-09-03T22:53:45.533Z,23.63
2023-09-03T22:56:14.250Z,22.90
2023-09-03T22:58:42.940Z,21.17
2023-09-03T23:01:11.747Z,20.70
2023-09-03T23:03:40.961Z,23.50
2023-09-03T23:06:11.060Z,19.88
2023-09-03T23:08:39.777Z,25.38
2023-09-03T23:11:08.534Z,22.25
2023-09-03T23:13:37.177Z,20.63
2023-09-03T23:16:06.604Z,19.75
2023-09-03T23:18:35.334Z,19.27
2023-09-03T23:21:10.608Z,19.58
2023-09-03T23:23:41.205Z,19.65
2023-09-03T23:26:10.314Z,20.80
2023-09-03T23:28:39.089Z,20.77
2023-09-03T23:31:07.815Z,20.33
2023-09-03T23:33:37.610Z,20.02
2023-09-03T23:36:07.054Z,21.23
2023-09-03T23:38:35.710Z,23.13
2023-09-03T23:41:05.918Z,20.88
2023-09-03T23:43:34.784Z,22.92
2023-09-03T23:46:03.877Z,24.30
2023-09-03T23:48:32.657Z,22.77
2023-09-03T23:51:01.771Z,22.30
2023-09-03T23:53:30.610Z,22.80
2023-09-03T23:55:59.998Z,26.55
2023-09-03T23:58:31.389Z,22.02
